sensor_id;sensor_type;location;lat;lon;timestamp;temperature;humidity
19033;DHT22;9649;51.042;13.804;2023-06-10T00:01:57;19.40;99.90
19033;DHT22;9649;51.042;13.804;2023-06-10T00:07:01;19.20;99.90
19033;DHT22;9649;51.042;13.804;2023-06-10T00:12:06;19.10;99.90
19033;DHT22;9649;51.042;13.804;2023-06-10T00:17:10;19.10;99.90
19033;DHT22;9649;51.042;13.804;2023-06-10T00:22:13;19.10;99.90
19033;DHT22;9649;51.042;13.804;2023-06-10T00:27:16;19.10;99.90
19033;DHT22;9649;51.042;13.804;2023-06-10T00:32:20;19.00;99.90
19033;DHT22;9649;51.042;13.804;2023-06-10T00:37:22;18.80;99.90
19033;DHT22;9649;51.042;13.804;2023-06-10T00:42:25;18.70;99.90
19033;DHT22;9649;51.042;13.804;2023-06-10T00:47:30;18.60;99.90
19033;DHT22;9649;51.042;13.804;2023-06-10T00:52:35;18.70;99.90
19033;DHT22;9649;51.042;13.804;2023-06-10T00:57:38;18.80;99.90
19033;DHT22;9649;51.042;13.804;2023-06-10T01:02:42;18.80;99.90
19033;DHT22;9649;51.042;13.804;2023-06-10T01:07:52;18.90;99.90
19033;DHT22;9649;51.042;13.804;2023-06-10T01:13:00;18.80;99.90
19033;DHT22;9649;51.042;13.804;2023-06-10T01:18:07;18.80;99.90
19033;DHT22;9649;51.042;13.804;2023-06-10T01:23:12;18.80;1.00
19033;DHT22;9649;51.042;13.804;2023-06-10T01:28:19;18.60;64.00
19033;DHT22;9649;51.042;13.804;2023-06-10T01:33:27;18.50;99.90
19033;DHT22;9649;51.042;13.804;2023-06-10T01:38:33;18.50;99.90
19033;DHT22;9649;51.042;13.804;2023-06-10T01:43:39;18.70;1.00
19033;DHT22;9649;51.042;13.804;2023-06-10T01:48:42;18.60;1.00
19033;DHT22;9649;51.042;13.804;2023-06-10T01:53:46;18.40;64.40
19033;DHT22;9649;51.042;13.804;2023-06-10T01:58:49;18.10;99.90
19033;DHT22;9649;51.042;13.804;2023-06-10T02:03:52;18.00;99.90
19033;DHT22;9649;51.042;13.804;2023-06-10T02:08:56;17.90;99.90
19033;DHT22;9649;51.042;13.804;2023-06-10T02:13:59;18.00;99.90
19033;DHT22;9649;51.042;13.804;2023-06-10T02:19:02;18.00;99.90
19033;DHT22;9649;51.042;13.804;2023-06-10T02:24:09;18.10;99.90
19033;DHT22;9649;51.042;13.804;2023-06-10T02:29:12;17.90;99.90
19033;DHT22;9649;51.042;13.804;2023-06-10T02:34:14;17.60;99.90
19033;DHT22;9649;51.042;13.804;2023-06-10T02:39:18;17.40;99.90
19033;DHT22;9649;51.042;13.804;2023-06-10T02:44:22;17.10;99.90
19033;DHT22;9649;51.042;13.804;2023-06-10T02:49:25;17.10;99.90
19033;DHT22;9649;51.042;13.804;2023-06-10T02:54:30;17.20;99.90
19033;DHT22;9649;51.042;13.804;2023-06-10T02:59:33;17.20;99.90
19033;DHT22;9649;51.042;13.804;2023-06-10T03:04:37;16.90;99.90
19033;DHT22;9649;51.042;13.804;2023-06-10T03:09:42;16.90;99.90
19033;DHT22;9649;51.042;13.804;2023-06-10T03:14:46;16.90;99.90
19033;DHT22;9649;51.042;13.804;2023-06-10T03:19:49;16.80;99.90
19033;DHT22;9649;51.042;13.804;2023-06-10T03:24:53;16.80;99.90
19033;DHT22;9649;51.042;13.804;2023-06-10T03:29:56;16.80;99.90
19033;DHT22;9649;51.042;13.804;2023-06-10T03:34:59;16.80;99.90
19033;DHT22;9649;51.042;13.804;2023-06-10T03:40:03;16.70;99.90
19033;DHT22;9649;51.042;13.804;2023-06-10T03:45:08;16.80;99.90
19033;DHT22;9649;51.042;13.804;2023-06-10T03:50:11;16.90;99.90
19033;DHT22;9649;51.042;13.804;2023-06-10T03:55:16;17.00;99.90
19033;DHT22;9649;51.042;13.804;2023-06-10T04:00:19;17.00;99.90
19033;DHT22;9649;51.042;13.804;2023-06-10T04:05:23;17.10;99.90
19033;DHT22;9649;51.042;13.804;2023-06-10T04:10:27;17.10;99.90
19033;DHT22;9649;51.042;13.804;2023-06-10T04:15:30;17.40;99.90
19033;DHT22;9649;51.042;13.804;2023-06-10T04:20:34;17.50;99.90
19033;DHT22;9649;51.042;13.804;2023-06-10T04:25:38;17.60;99.90
19033;DHT22;9649;51.042;13.804;2023-06-10T04:30:41;17.80;99.90
19033;DHT22;9649;51.042;13.804;2023-06-10T04:35:44;17.90;99.90
19033;DHT22;9649;51.042;13.804;2023-06-10T04:40:50;18.10;99.90
19033;DHT22;9649;51.042;13.804;2023-06-10T04:45:53;18.40;1.00
19033;DHT22;9649;51.042;13.804;2023-06-10T04:50:56;18.70;1.00
19033;DHT22;9649;51.042;13.804;2023-06-10T04:56:00;19.00;1.00
19033;DHT22;9649;51.042;13.804;2023-06-10T05:01:02;19.20;1.00
19033;DHT22;9649;51.042;13.804;2023-06-10T05:06:05;19.50;1.00
19033;DHT22;9649;51.042;13.804;2023-06-10T05:11:09;19.90;1.00
19033;DHT22;9649;51.042;13.804;2023-06-10T05:16:12;20.10;99.90
19033;DHT22;9649;51.042;13.804;2023-06-10T05:21:16;20.30;1.00
19033;DHT22;9649;51.042;13.804;2023-06-10T05:26:20;20.50;1.00
19033;DHT22;9649;51.042;13.804;2023-06-10T05:31:23;20.70;99.90
19033;DHT22;9649;51.042;13.804;2023-06-10T05:36:26;20.30;1.00
19033;DHT22;9649;51.042;13.804;2023-06-10T05:41:30;20.20;1.00
19033;DHT22;9649;51.042;13.804;2023-06-10T05:46:33;20.60;1.00
19033;DHT22;9649;51.042;13.804;2023-06-10T05:51:36;21.50;1.00
19033;DHT22;9649;51.042;13.804;2023-06-10T05:56:41;22.30;99.90
19033;DHT22;9649;51.042;13.804;2023-06-10T06:01:43;22.40;1.00
19033;DHT22;9649;51.042;13.804;2023-06-10T06:06:46;22.70;1.00
19033;DHT22;9649;51.042;13.804;2023-06-10T06:11:50;22.90;99.90
19033;DHT22;9649;51.042;13.804;2023-06-10T06:16:53;22.70;1.00
19033;DHT22;9649;51.042;13.804;2023-06-10T06:21:56;22.30;1.00
19033;DHT22;9649;51.042;13.804;2023-06-10T06:27:00;22.00;1.00
19033;DHT22;9649;51.042;13.804;2023-06-10T06:32:03;21.70;1.00
19033;DHT22;9649;51.042;13.804;2023-06-10T06:37:06;21.80;99.90
19033;DHT22;9649;51.042;13.804;2023-06-10T06:42:10;21.90;1.00
19033;DHT22;9649;51.042;13.804;2023-06-10T06:47:13;22.10;1.00
19033;DHT22;9649;51.042;13.804;2023-06-10T06:52:16;22.30;1.00
19033;DHT22;9649;51.042;13.804;2023-06-10T06:57:20;22.50;1.00
19033;DHT22;9649;51.042;13.804;2023-06-10T07:02:24;23.00;1.00
19033;DHT22;9649;51.042;13.804;2023-06-10T07:07:27;23.40;1.00
19033;DHT22;9649;51.042;13.804;2023-06-10T07:12:31;23.60;99.90
19033;DHT22;9649;51.042;13.804;2023-06-10T07:17:34;24.10;1.00
19033;DHT22;9649;51.042;13.804;2023-06-10T07:22:37;24.60;1.00
19033;DHT22;9649;51.042;13.804;2023-06-10T07:27:41;25.10;1.00
19033;DHT22;9649;51.042;13.804;2023-06-10T07:32:44;25.10;1.00
19033;DHT22;9649;51.042;13.804;2023-06-10T07:37:47;24.90;1.00
19033;DHT22;9649;51.042;13.804;2023-06-10T07:42:51;24.30;1.00
19033;DHT22;9649;51.042;13.804;2023-06-10T07:47:54;24.40;1.00
19033;DHT22;9649;51.042;13.804;2023-06-10T07:52:58;24.70;1.00
19033;DHT22;9649;51.042;13.804;2023-06-10T07:58:02;24.80;1.00
19033;DHT22;9649;51.042;13.804;2023-06-10T08:03:04;24.80;1.00
19033;DHT22;9649;51.042;13.804;2023-06-10T08:08:07;25.30;99.90
19033;DHT22;9649;51.042;13.804;2023-06-10T08:13:11;26.50;99.90
19033;DHT22;9649;51.042;13.804;2023-06-10T08:18:14;26.40;1.00
19033;DHT22;9649;51.042;13.804;2023-06-10T08:23:17;26.20;23.50
19033;DHT22;9649;51.042;13.804;2023-06-10T08:28:22;25.80;99.90
19033;DHT22;9649;51.042;13.804;2023-06-10T08:33:25;26.10;92.70
19033;DHT22;9649;51.042;13.804;2023-06-10T08:38:28;26.50;4.10
19033;DHT22;9649;51.042;13.804;2023-06-10T08:43:34;27.10;1.00
19033;DHT22;9649;51.042;13.804;2023-06-10T08:48:42;27.40;1.00
19033;DHT22;9649;51.042;13.804;2023-06-10T08:53:50;28.50;1.00
19033;DHT22;9649;51.042;13.804;2023-06-10T08:58:57;29.80;1.00
19033;DHT22;9649;51.042;13.804;2023-06-10T09:04:01;30.20;1.00
19033;DHT22;9649;51.042;13.804;2023-06-10T09:09:05;30.20;1.00
19033;DHT22;9649;51.042;13.804;2023-06-10T09:14:10;31.10;1.00
19033;DHT22;9649;51.042;13.804;2023-06-10T09:19:14;31.70;1.00
19033;DHT22;9649;51.042;13.804;2023-06-10T09:24:18;31.30;99.90
19033;DHT22;9649;51.042;13.804;2023-06-10T09:29:22;31.70;99.90
19033;DHT22;9649;51.042;13.804;2023-06-10T09:34:25;32.40;99.90
19033;DHT22;9649;51.042;13.804;2023-06-10T09:39:28;34.10;99.90
19033;DHT22;9649;51.042;13.804;2023-06-10T09:44:32;35.50;99.90
19033;DHT22;9649;51.042;13.804;2023-06-10T09:49:37;35.30;99.90
19033;DHT22;9649;51.042;13.804;2023-06-10T09:54:40;37.10;99.90
19033;DHT22;9649;51.042;13.804;2023-06-10T09:59:48;39.90;99.90
19033;DHT22;9649;51.042;13.804;2023-06-10T10:05:02;39.60;99.90
19033;DHT22;9649;51.042;13.804;2023-06-10T10:10:06;39.90;99.90
19033;DHT22;9649;51.042;13.804;2023-06-10T10:15:11;41.50;99.90
19033;DHT22;9649;51.042;13.804;2023-06-10T10:20:18;38.00;99.90
19033;DHT22;9649;51.042;13.804;2023-06-10T10:25:26;34.20;99.90
19033;DHT22;9649;51.042;13.804;2023-06-10T10:30:37;30.90;99.90
19033;DHT22;9649;51.042;13.804;2023-06-10T10:35:40;31.00;99.90
19033;DHT22;9649;51.042;13.804;2023-06-10T10:40:45;33.10;99.90
19033;DHT22;9649;51.042;13.804;2023-06-10T10:45:59;37.20;99.90
19033;DHT22;9649;51.042;13.804;2023-06-10T10:51:01;41.00;99.90
19033;DHT22;9649;51.042;13.804;2023-06-10T10:56:05;37.90;99.90
19033;DHT22;9649;51.042;13.804;2023-06-10T11:01:14;41.40;99.90
19033;DHT22;9649;51.042;13.804;2023-06-10T11:06:18;42.50;99.90
19033;DHT22;9649;51.042;13.804;2023-06-10T11:11:22;42.70;99.90
19033;DHT22;9649;51.042;13.804;2023-06-10T11:16:27;40.60;97.60
19033;DHT22;9649;51.042;13.804;2023-06-10T11:21:30;41.90;99.90
19033;DHT22;9649;51.042;13.804;2023-06-10T11:26:33;45.50;86.00
19033;DHT22;9649;51.042;13.804;2023-06-10T11:31:46;43.70;58.50
19033;DHT22;9649;51.042;13.804;2023-06-10T11:36:51;37.60;86.50
19033;DHT22;9649;51.042;13.804;2023-06-10T11:41:54;39.20;99.60
19033;DHT22;9649;51.042;13.804;2023-06-10T11:46:59;42.30;89.80
19033;DHT22;9649;51.042;13.804;2023-06-10T11:52:04;44.40;72.10
19033;DHT22;9649;51.042;13.804;2023-06-10T11:57:07;47.40;51.20
19033;DHT22;9649;51.042;13.804;2023-06-10T12:02:16;49.00;26.00
19033;DHT22;9649;51.042;13.804;2023-06-10T12:07:20;45.20;20.00
19033;DHT22;9649;51.042;13.804;2023-06-10T12:12:24;43.60;25.50
19033;DHT22;9649;51.042;13.804;2023-06-10T12:17:37;44.50;23.80
19033;DHT22;9649;51.042;13.804;2023-06-10T12:22:42;45.10;39.50
19033;DHT22;9649;51.042;13.804;2023-06-10T12:27:50;44.90;16.30
19033;DHT22;9649;51.042;13.804;2023-06-10T12:32:56;46.20;11.50
19033;DHT22;9649;51.042;13.804;2023-06-10T12:38:01;45.20;8.10
19033;DHT22;9649;51.042;13.804;2023-06-10T12:43:04;45.20;7.50
19033;DHT22;9649;51.042;13.804;2023-06-10T12:48:10;44.20;6.90
19033;DHT22;9649;51.042;13.804;2023-06-10T12:53:13;44.70;4.30
19033;DHT22;9649;51.042;13.804;2023-06-10T12:58:16;44.40;4.80
19033;DHT22;9649;51.042;13.804;2023-06-10T13:03:20;44.80;4.10
19033;DHT22;9649;51.042;13.804;2023-06-10T13:08:23;43.90;1.00
19033;DHT22;9649;51.042;13.804;2023-06-10T13:13:26;43.10;7.50
19033;DHT22;9649;51.042;13.804;2023-06-10T13:18:31;42.90;9.60
19033;DHT22;9649;51.042;13.804;2023-06-10T13:23:38;42.70;8.70
19033;DHT22;9649;51.042;13.804;2023-06-10T13:28:41;42.80;10.20
19033;DHT22;9649;51.042;13.804;2023-06-10T13:33:45;44.10;1.80
19033;DHT22;9649;51.042;13.804;2023-06-10T13:38:48;43.00;1.00
19033;DHT22;9649;51.042;13.804;2023-06-10T13:43:51;42.60;1.10
19033;DHT22;9649;51.042;13.804;2023-06-10T13:48:55;42.60;1.00
19033;DHT22;9649;51.042;13.804;2023-06-10T13:53:58;43.40;1.00
19033;DHT22;9649;51.042;13.804;2023-06-10T13:59:01;42.80;1.00
19033;DHT22;9649;51.042;13.804;2023-06-10T14:04:06;41.70;1.00
19033;DHT22;9649;51.042;13.804;2023-06-10T14:09:09;42.70;1.00
19033;DHT22;9649;51.042;13.804;2023-06-10T14:14:12;43.30;1.00
19033;DHT22;9649;51.042;13.804;2023-06-10T14:19:17;42.60;1.00
19033;DHT22;9649;51.042;13.804;2023-06-10T14:24:19;42.30;1.00
19033;DHT22;9649;51.042;13.804;2023-06-10T14:29:22;43.00;1.00
19033;DHT22;9649;51.042;13.804;2023-06-10T14:34:26;42.60;1.00
19033;DHT22;9649;51.042;13.804;2023-06-10T14:39:32;41.30;1.00
19033;DHT22;9649;51.042;13.804;2023-06-10T14:44:34;39.50;1.00
19033;DHT22;9649;51.042;13.804;2023-06-10T14:49:38;40.40;1.00
19033;DHT22;9649;51.042;13.804;2023-06-10T14:54:43;39.30;1.00
19033;DHT22;9649;51.042;13.804;2023-06-10T14:59:46;38.00;1.00
19033;DHT22;9649;51.042;13.804;2023-06-10T15:04:50;38.00;1.00
19033;DHT22;9649;51.042;13.804;2023-06-10T15:09:52;39.40;1.00
19033;DHT22;9649;51.042;13.804;2023-06-10T15:14:55;37.70;3.00
19033;DHT22;9649;51.042;13.804;2023-06-10T15:19:59;37.60;4.00
19033;DHT22;9649;51.042;13.804;2023-06-10T15:25:02;37.30;9.30
19033;DHT22;9649;51.042;13.804;2023-06-10T15:30:26;36.00;16.80
19033;DHT22;9649;51.042;13.804;2023-06-10T15:35:30;35.10;22.40
19033;DHT22;9649;51.042;13.804;2023-06-10T15:40:33;34.80;28.30
19033;DHT22;9649;51.042;13.804;2023-06-10T15:45:36;34.60;34.40
19033;DHT22;9649;51.042;13.804;2023-06-10T15:50:40;34.20;38.30
19033;DHT22;9649;51.042;13.804;2023-06-10T15:55:44;34.90;41.00
19033;DHT22;9649;51.042;13.804;2023-06-10T16:00:47;35.40;35.30
19033;DHT22;9649;51.042;13.804;2023-06-10T16:05:51;36.30;29.70
19033;DHT22;9649;51.042;13.804;2023-06-10T16:10:54;33.90;35.60
19033;DHT22;9649;51.042;13.804;2023-06-10T16:15:57;33.10;45.80
19033;DHT22;9649;51.042;13.804;2023-06-10T16:21:01;33.40;47.80
19033;DHT22;9649;51.042;13.804;2023-06-10T16:26:04;32.70;52.30
19033;DHT22;9649;51.042;13.804;2023-06-10T16:31:07;32.30;59.60
19033;DHT22;9649;51.042;13.804;2023-06-10T16:36:11;32.60;64.40
19033;DHT22;9649;51.042;13.804;2023-06-10T16:41:14;32.20;74.00
19033;DHT22;9649;51.042;13.804;2023-06-10T16:46:17;32.30;78.00
19033;DHT22;9649;51.042;13.804;2023-06-10T16:51:22;32.50;76.30
19033;DHT22;9649;51.042;13.804;2023-06-10T16:56:25;32.30;70.30
19033;DHT22;9649;51.042;13.804;2023-06-10T17:01:28;31.50;77.30
19033;DHT22;9649;51.042;13.804;2023-06-10T17:06:32;30.80;83.20
19033;DHT22;9649;51.042;13.804;2023-06-10T17:11:35;29.90;92.20
19033;DHT22;9649;51.042;13.804;2023-06-10T17:16:38;29.20;99.60
19033;DHT22;9649;51.042;13.804;2023-06-10T17:21:43;28.80;99.90
19033;DHT22;9649;51.042;13.804;2023-06-10T17:26:46;28.60;99.90
19033;DHT22;9649;51.042;13.804;2023-06-10T17:31:49;28.40;99.90
19033;DHT22;9649;51.042;13.804;2023-06-10T17:36:53;28.30;99.90
19033;DHT22;9649;51.042;13.804;2023-06-10T17:41:56;28.20;99.90
19033;DHT22;9649;51.042;13.804;2023-06-10T17:46:58;28.00;99.90
19033;DHT22;9649;51.042;13.804;2023-06-10T17:52:03;27.90;99.90
19033;DHT22;9649;51.042;13.804;2023-06-10T17:57:06;28.00;99.90
19033;DHT22;9649;51.042;13.804;2023-06-10T18:02:09;28.40;99.90
19033;DHT22;9649;51.042;13.804;2023-06-10T18:07:13;28.00;99.90
19033;DHT22;9649;51.042;13.804;2023-06-10T18:12:19;27.50;99.90
19033;DHT22;9649;51.042;13.804;2023-06-10T18:17:22;27.10;99.90
19033;DHT22;9649;51.042;13.804;2023-06-10T18:22:26;26.90;99.90
19033;DHT22;9649;51.042;13.804;2023-06-10T18:27:29;27.10;99.90
19033;DHT22;9649;51.042;13.804;2023-06-10T18:32:32;27.20;99.90
19033;DHT22;9649;51.042;13.804;2023-06-10T18:37:36;27.20;99.90
19033;DHT22;9649;51.042;13.804;2023-06-10T18:42:38;26.90;99.90
19033;DHT22;9649;51.042;13.804;2023-06-10T18:47:41;26.30;99.90
19033;DHT22;9649;51.042;13.804;2023-06-10T18:52:59;25.90;1.00
19033;DHT22;9649;51.042;13.804;2023-06-10T18:58:02;25.50;1.00
19033;DHT22;9649;51.042;13.804;2023-06-10T19:03:05;25.10;1.00
19033;DHT22;9649;51.042;13.804;2023-06-10T19:08:09;24.80;1.00
19033;DHT22;9649;51.042;13.804;2023-06-10T19:13:12;24.50;1.00
19033;DHT22;9649;51.042;13.804;2023-06-10T19:18:15;24.20;1.00
19033;DHT22;9649;51.042;13.804;2023-06-10T19:23:19;24.00;1.00
19033;DHT22;9649;51.042;13.804;2023-06-10T19:28:21;23.80;1.00
19033;DHT22;9649;51.042;13.804;2023-06-10T19:33:24;23.40;1.00
19033;DHT22;9649;51.042;13.804;2023-06-10T19:38:29;23.30;1.00
19033;DHT22;9649;51.042;13.804;2023-06-10T19:43:31;23.10;1.00
19033;DHT22;9649;51.042;13.804;2023-06-10T19:48:34;22.90;1.00
19033;DHT22;9649;51.042;13.804;2023-06-10T19:53:38;22.70;1.00
19033;DHT22;9649;51.042;13.804;2023-06-10T19:58:41;22.50;1.00
19033;DHT22;9649;51.042;13.804;2023-06-10T20:03:44;22.20;1.00
19033;DHT22;9649;51.042;13.804;2023-06-10T20:08:48;22.00;99.90
19033;DHT22;9649;51.042;13.804;2023-06-10T20:13:51;22.10;99.90
19033;DHT22;9649;51.042;13.804;2023-06-10T20:18:54;22.20;1.00
19033;DHT22;9649;51.042;13.804;2023-06-10T20:23:58;22.30;1.00
19033;DHT22;9649;51.042;13.804;2023-06-10T20:29:01;22.00;1.00
19033;DHT22;9649;51.042;13.804;2023-06-10T20:34:04;21.70;1.00
19033;DHT22;9649;51.042;13.804;2023-06-10T20:39:08;21.60;1.00
19033;DHT22;9649;51.042;13.804;2023-06-10T20:44:11;21.50;1.00
19033;DHT22;9649;51.042;13.804;2023-06-10T20:49:15;21.40;44.80
19033;DHT22;9649;51.042;13.804;2023-06-10T20:54:19;21.40;41.30
19033;DHT22;9649;51.042;13.804;2023-06-10T20:59:22;21.20;25.40
19033;DHT22;9649;51.042;13.804;2023-06-10T21:04:24;21.10;1.00
19033;DHT22;9649;51.042;13.804;2023-06-10T21:09:29;21.10;1.00
19033;DHT22;9649;51.042;13.804;2023-06-10T21:14:31;21.20;1.00
19033;DHT22;9649;51.042;13.804;2023-06-10T21:19:34;21.30;1.00
19033;DHT22;9649;51.042;13.804;2023-06-10T21:24:38;21.20;1.00
19033;DHT22;9649;51.042;13.804;2023-06-10T21:29:41;21.20;1.00
19033;DHT22;9649;51.042;13.804;2023-06-10T21:34:45;21.10;1.00
19033;DHT22;9649;51.042;13.804;2023-06-10T21:39:53;21.00;1.00
19033;DHT22;9649;51.042;13.804;2023-06-10T21:44:56;21.20;1.00
19033;DHT22;9649;51.042;13.804;2023-06-10T21:49:58;21.10;1.00
19033;DHT22;9649;51.042;13.804;2023-06-10T21:55:03;20.80;1.00
19033;DHT22;9649;51.042;13.804;2023-06-10T22:00:07;20.50;1.00
19033;DHT22;9649;51.042;13.804;2023-06-10T22:05:13;20.20;1.00
19033;DHT22;9649;51.042;13.804;2023-06-10T22:10:17;20.10;91.10
19033;DHT22;9649;51.042;13.804;2023-06-10T22:15:20;20.00;1.00
19033;DHT22;9649;51.042;13.804;2023-06-10T22:20:23;20.10;1.00
19033;DHT22;9649;51.042;13.804;2023-06-10T22:25:27;20.10;1.00
19033;DHT22;9649;51.042;13.804;2023-06-10T22:30:30;20.00;1.00
19033;DHT22;9649;51.042;13.804;2023-06-10T22:35:33;20.10;1.00
19033;DHT22;9649;51.042;13.804;2023-06-10T22:40:37;20.10;88.40
19033;DHT22;9649;51.042;13.804;2023-06-10T22:45:40;19.70;99.90
19033;DHT22;9649;51.042;13.804;2023-06-10T22:50:43;19.50;99.90
19033;DHT22;9649;51.042;13.804;2023-06-10T22:55:47;19.40;1.00
19033;DHT22;9649;51.042;13.804;2023-06-10T23:00:49;19.20;99.90
19033;DHT22;9649;51.042;13.804;2023-06-10T23:05:52;19.20;99.90
19033;DHT22;9649;51.042;13.804;2023-06-10T23:10:56;19.00;99.90
19033;DHT22;9649;51.042;13.804;2023-06-10T23:15:59;18.90;99.90
19033;DHT22;9649;51.042;13.804;2023-06-10T23:21:02;18.80;1.00
19033;DHT22;9649;51.042;13.804;2023-06-10T23:26:06;18.50;1.00
19033;DHT22;9649;51.042;13.804;2023-06-10T23:31:09;18.30;1.00
19033;DHT22;9649;51.042;13.804;2023-06-10T23:36:12;18.30;1.00
19033;DHT22;9649;51.042;13.804;2023-06-10T23:41:16;18.10;99.90
19033;DHT22;9649;51.042;13.804;2023-06-10T23:46:19;17.70;1.00
19033;DHT22;9649;51.042;13.804;2023-06-10T23:51:22;17.40;1.00
19033;DHT22;9649;51.042;13.804;2023-06-10T23:56:26;17.20;1.00
